Terminal Aerodrome Forecast
Issued by NWS Burlington, VT

Home | Current Version | Previous Version | Text Only | Print | Product List | Glossary On
Versions: 1 2 3 4 5 6 7 8 9 10 11 12 13 14 15 16 17 18
000
FTUS41 KBTV 012300
TAFBTV
TAF
KBTV 012324Z 0200/0224 18005KT P6SM SCT050 SCT150
      TEMPO 0202/0206 18007G14KT
     FM021500 19007G14KT P6SM VCSH SCT050 SCT100=

USA.gov is the U.S. government's official web portal to all federal, state and local government web resources and services.